sensor_id;sensor_type;location;lat;lon;timestamp;pressure;altitude;pressure_sealevel;temperature;humidity
38880;BME280;25887;30.194;-97.880;2023-06-22T00:01:47;97665.91;;;39.06;39.53
38880;BME280;25887;30.194;-97.880;2023-06-22T00:04:13;97681.97;;;38.99;39.46
38880;BME280;25887;30.194;-97.880;2023-06-22T00:06:39;97722.69;;;38.96;39.84
38880;BME280;25887;30.194;-97.880;2023-06-22T00:09:05;97801.63;;;38.95;40.05
38880;BME280;25887;30.194;-97.880;2023-06-22T00:11:46;97827.97;;;38.85;38.85
38880;BME280;25887;30.194;-97.880;2023-06-22T00:14:14;97874.44;;;38.64;37.11
38880;BME280;25887;30.194;-97.880;2023-06-22T00:16:41;97940.41;;;38.37;35.69
38880;BME280;25887;30.194;-97.880;2023-06-22T00:19:08;97961.56;;;38.02;34.23
38880;BME280;25887;30.194;-97.880;2023-06-22T00:21:37;97985.44;;;37.59;34.27
38880;BME280;25887;30.194;-97.880;2023-06-22T00:24:04;97928.94;;;37.00;35.27
38880;BME280;25887;30.194;-97.880;2023-06-22T00:26:30;97936.44;;;36.43;36.77
38880;BME280;25887;30.194;-97.880;2023-06-22T00:28:56;97960.47;;;35.79;37.68
38880;BME280;25887;30.194;-97.880;2023-06-22T00:31:23;97996.19;;;35.13;38.69
38880;BME280;25887;30.194;-97.880;2023-06-22T00:33:49;97940.63;;;34.50;39.42
38880;BME280;25887;30.194;-97.880;2023-06-22T00:36:16;97903.31;;;33.90;40.37
38880;BME280;25887;30.194;-97.880;2023-06-22T00:38:43;97886.59;;;33.36;41.95
38880;BME280;25887;30.194;-97.880;2023-06-22T00:41:09;97932.97;;;32.89;42.05
38880;BME280;25887;30.194;-97.880;2023-06-22T00:43:35;97962.06;;;32.46;42.69
38880;BME280;25887;30.194;-97.880;2023-06-22T00:46:02;98000.78;;;32.11;43.71
38880;BME280;25887;30.194;-97.880;2023-06-22T00:48:28;97986.19;;;31.78;44.03
38880;BME280;25887;30.194;-97.880;2023-06-22T00:50:55;97956.72;;;31.52;44.26
38880;BME280;25887;30.194;-97.880;2023-06-22T00:53:23;97916.06;;;31.32;44.95
38880;BME280;25887;30.194;-97.880;2023-06-22T00:55:51;97884.91;;;31.15;45.05
38880;BME280;25887;30.194;-97.880;2023-06-22T00:58:18;97877.06;;;31.03;45.52
38880;BME280;25887;30.194;-97.880;2023-06-22T01:00:47;97918.00;;;30.91;45.33
38880;BME280;25887;30.194;-97.880;2023-06-22T01:03:14;97989.19;;;30.86;45.71
38880;BME280;25887;30.194;-97.880;2023-06-22T01:05:42;98029.81;;;30.77;46.18
38880;BME280;25887;30.194;-97.880;2023-06-22T01:08:31;98026.72;;;30.72;46.24
38880;BME280;25887;30.194;-97.880;2023-06-22T01:16:24;97999.69;;;30.57;46.65
38880;BME280;25887;30.194;-97.880;2023-06-22T01:18:55;97983.31;;;30.42;47.58
38880;BME280;25887;30.194;-97.880;2023-06-22T01:21:24;97983.97;;;30.35;47.39
38880;BME280;25887;30.194;-97.880;2023-06-22T01:24:18;97988.72;;;30.31;47.34
38880;BME280;25887;30.194;-97.880;2023-06-22T01:29:37;98012.09;;;30.16;47.79
38880;BME280;25887;30.194;-97.880;2023-06-22T01:32:06;97989.59;;;30.11;48.16
38880;BME280;25887;30.194;-97.880;2023-06-22T01:34:33;97987.19;;;30.08;48.72
38880;BME280;25887;30.194;-97.880;2023-06-22T01:37:02;97981.06;;;30.07;48.77
38880;BME280;25887;30.194;-97.880;2023-06-22T01:39:29;97951.91;;;30.07;49.06
38880;BME280;25887;30.194;-97.880;2023-06-22T01:41:57;97906.19;;;30.05;49.36
38880;BME280;25887;30.194;-97.880;2023-06-22T01:44:24;97886.06;;;30.03;49.60
38880;BME280;25887;30.194;-97.880;2023-06-22T01:46:52;97882.59;;;30.02;49.56
38880;BME280;25887;30.194;-97.880;2023-06-22T01:49:19;97886.06;;;30.03;49.94
38880;BME280;25887;30.194;-97.880;2023-06-22T01:51:45;97882.44;;;30.04;49.99
38880;BME280;25887;30.194;-97.880;2023-06-22T01:54:11;97851.78;;;30.01;50.11
38880;BME280;25887;30.194;-97.880;2023-06-22T01:56:37;97848.16;;;30.02;50.06
38880;BME280;25887;30.194;-97.880;2023-06-22T02:01:59;97821.25;;;29.97;49.82
38880;BME280;25887;30.194;-97.880;2023-06-22T02:04:34;97799.06;;;29.88;50.08
38880;BME280;25887;30.194;-97.880;2023-06-22T02:07:05;97800.97;;;29.77;50.51
38880;BME280;25887;30.194;-97.880;2023-06-22T02:09:35;97845.63;;;29.60;50.41
38880;BME280;25887;30.194;-97.880;2023-06-22T02:12:05;97872.41;;;29.46;50.69
38880;BME280;25887;30.194;-97.880;2023-06-22T02:14:33;97872.50;;;29.35;50.84
38880;BME280;25887;30.194;-97.880;2023-06-22T02:17:00;97828.25;;;29.26;50.87
38880;BME280;25887;30.194;-97.880;2023-06-22T02:19:27;97782.81;;;29.11;51.85
38880;BME280;25887;30.194;-97.880;2023-06-22T02:21:53;97776.59;;;29.01;52.13
38880;BME280;25887;30.194;-97.880;2023-06-22T02:24:19;97799.84;;;28.86;52.43
38880;BME280;25887;30.194;-97.880;2023-06-22T02:26:49;97805.78;;;28.78;52.11
38880;BME280;25887;30.194;-97.880;2023-06-22T02:29:15;97761.94;;;28.76;52.16
38880;BME280;25887;30.194;-97.880;2023-06-22T02:31:41;97709.44;;;28.71;52.58
38880;BME280;25887;30.194;-97.880;2023-06-22T02:34:07;97674.50;;;28.68;52.65
38880;BME280;25887;30.194;-97.880;2023-06-22T02:36:34;97623.72;;;28.64;52.73
38880;BME280;25887;30.194;-97.880;2023-06-22T02:39:00;97603.81;;;28.60;52.45
38880;BME280;25887;30.194;-97.880;2023-06-22T02:41:27;97614.66;;;28.57;52.38
38880;BME280;25887;30.194;-97.880;2023-06-22T02:43:54;97634.81;;;28.58;52.32
38880;BME280;25887;30.194;-97.880;2023-06-22T02:46:20;97668.06;;;28.61;52.60
38880;BME280;25887;30.194;-97.880;2023-06-22T02:48:46;97700.38;;;28.64;52.49
38880;BME280;25887;30.194;-97.880;2023-06-22T02:51:13;97723.78;;;28.69;52.72
38880;BME280;25887;30.194;-97.880;2023-06-22T02:53:40;97755.13;;;28.73;52.81
38880;BME280;25887;30.194;-97.880;2023-06-22T02:56:10;97779.34;;;28.78;52.42
38880;BME280;25887;30.194;-97.880;2023-06-22T02:58:37;97805.41;;;28.83;52.54
38880;BME280;25887;30.194;-97.880;2023-06-22T03:01:06;97819.19;;;28.86;52.83
38880;BME280;25887;30.194;-97.880;2023-06-22T03:03:32;97809.13;;;28.92;52.67
38880;BME280;25887;30.194;-97.880;2023-06-22T03:05:58;97799.13;;;28.95;52.37
38880;BME280;25887;30.194;-97.880;2023-06-22T03:08:35;97803.19;;;28.99;52.58
38880;BME280;25887;30.194;-97.880;2023-06-22T03:11:02;97793.44;;;29.00;52.71
38880;BME280;25887;30.194;-97.880;2023-06-22T03:13:28;97795.72;;;29.04;52.82
38880;BME280;25887;30.194;-97.880;2023-06-22T03:15:54;97776.09;;;29.07;52.35
38880;BME280;25887;30.194;-97.880;2023-06-22T03:18:21;97763.56;;;29.09;52.40
38880;BME280;25887;30.194;-97.880;2023-06-22T03:20:48;97753.72;;;29.11;52.62
38880;BME280;25887;30.194;-97.880;2023-06-22T03:23:15;97767.50;;;29.14;52.45
38880;BME280;25887;30.194;-97.880;2023-06-22T03:25:42;97794.53;;;29.18;52.42
38880;BME280;25887;30.194;-97.880;2023-06-22T03:28:10;97806.81;;;29.19;52.20
38880;BME280;25887;30.194;-97.880;2023-06-22T03:30:36;97801.38;;;29.21;52.37
38880;BME280;25887;30.194;-97.880;2023-06-22T03:33:03;97805.97;;;29.19;52.26
38880;BME280;25887;30.194;-97.880;2023-06-22T03:35:29;97804.16;;;29.19;52.66
38880;BME280;25887;30.194;-97.880;2023-06-22T03:37:55;97766.38;;;29.17;52.47
38880;BME280;25887;30.194;-97.880;2023-06-22T03:40:21;97756.09;;;29.14;52.54
38880;BME280;25887;30.194;-97.880;2023-06-22T03:42:48;97749.13;;;29.13;52.78
38880;BME280;25887;30.194;-97.880;2023-06-22T03:45:14;97752.47;;;29.15;52.69
38880;BME280;25887;30.194;-97.880;2023-06-22T03:48:02;97752.19;;;29.18;52.73
38880;BME280;25887;30.194;-97.880;2023-06-22T03:50:28;97766.66;;;29.14;52.78
38880;BME280;25887;30.194;-97.880;2023-06-22T03:52:55;97790.59;;;29.12;52.97
38880;BME280;25887;30.194;-97.880;2023-06-22T03:55:22;97806.72;;;29.09;52.71
38880;BME280;25887;30.194;-97.880;2023-06-22T03:57:48;97824.06;;;29.02;52.91
38880;BME280;25887;30.194;-97.880;2023-06-22T04:00:15;97821.13;;;28.96;52.81
38880;BME280;25887;30.194;-97.880;2023-06-22T04:02:41;97824.16;;;28.91;52.90
38880;BME280;25887;30.194;-97.880;2023-06-22T04:05:09;97810.19;;;28.89;53.01
38880;BME280;25887;30.194;-97.880;2023-06-22T04:07:35;97785.94;;;28.84;53.40
38880;BME280;25887;30.194;-97.880;2023-06-22T04:10:05;97730.81;;;28.79;53.55
38880;BME280;25887;30.194;-97.880;2023-06-22T04:12:32;97688.75;;;28.76;53.71
38880;BME280;25887;30.194;-97.880;2023-06-22T04:15:00;97668.84;;;28.72;53.70
38880;BME280;25887;30.194;-97.880;2023-06-22T04:17:26;97661.03;;;28.71;53.59
38880;BME280;25887;30.194;-97.880;2023-06-22T04:19:52;97673.31;;;28.72;53.72
38880;BME280;25887;30.194;-97.880;2023-06-22T04:22:19;97698.63;;;28.74;53.80
38880;BME280;25887;30.194;-97.880;2023-06-22T04:24:45;97731.75;;;28.78;53.97
38880;BME280;25887;30.194;-97.880;2023-06-22T04:27:11;97724.41;;;28.82;53.38
38880;BME280;25887;30.194;-97.880;2023-06-22T04:29:37;97720.09;;;28.81;53.89
38880;BME280;25887;30.194;-97.880;2023-06-22T04:32:09;97703.25;;;28.82;53.89
38880;BME280;25887;30.194;-97.880;2023-06-22T04:34:38;97675.00;;;28.82;53.84
38880;BME280;25887;30.194;-97.880;2023-06-22T04:37:04;97681.28;;;28.81;53.92
38880;BME280;25887;30.194;-97.880;2023-06-22T04:39:31;97672.22;;;28.84;54.14
38880;BME280;25887;30.194;-97.880;2023-06-22T04:41:57;97643.16;;;28.84;53.73
38880;BME280;25887;30.194;-97.880;2023-06-22T04:44:26;97626.16;;;28.86;53.74
38880;BME280;25887;30.194;-97.880;2023-06-22T04:46:59;97634.84;;;28.89;53.72
38880;BME280;25887;30.194;-97.880;2023-06-22T04:49:35;97634.94;;;28.87;53.31
38880;BME280;25887;30.194;-97.880;2023-06-22T04:52:07;97632.19;;;28.89;53.18
38880;BME280;25887;30.194;-97.880;2023-06-22T04:54:35;97637.47;;;28.89;52.92
38880;BME280;25887;30.194;-97.880;2023-06-22T04:57:06;97645.41;;;28.89;53.33
38880;BME280;25887;30.194;-97.880;2023-06-22T04:59:36;97655.88;;;28.90;53.31
38880;BME280;25887;30.194;-97.880;2023-06-22T05:02:05;97666.31;;;28.92;53.00
38880;BME280;25887;30.194;-97.880;2023-06-22T05:04:31;97655.75;;;28.92;52.99
38880;BME280;25887;30.194;-97.880;2023-06-22T05:06:58;97661.88;;;28.92;52.97
38880;BME280;25887;30.194;-97.880;2023-06-22T05:09:25;97657.28;;;28.94;53.16
38880;BME280;25887;30.194;-97.880;2023-06-22T05:11:52;97651.28;;;28.92;53.19
38880;BME280;25887;30.194;-97.880;2023-06-22T05:14:18;97671.59;;;28.92;53.08
38880;BME280;25887;30.194;-97.880;2023-06-22T05:16:50;97689.38;;;28.90;53.12
38880;BME280;25887;30.194;-97.880;2023-06-22T05:19:17;97701.03;;;28.87;53.41
38880;BME280;25887;30.194;-97.880;2023-06-22T05:21:44;97652.06;;;28.83;53.34
38880;BME280;25887;30.194;-97.880;2023-06-22T05:24:10;97635.63;;;28.79;53.31
38880;BME280;25887;30.194;-97.880;2023-06-22T05:26:36;97611.38;;;28.74;53.38
38880;BME280;25887;30.194;-97.880;2023-06-22T05:29:03;97635.41;;;28.71;53.53
38880;BME280;25887;30.194;-97.880;2023-06-22T05:31:29;97657.13;;;28.65;53.30
38880;BME280;25887;30.194;-97.880;2023-06-22T05:33:56;97642.47;;;28.61;53.52
38880;BME280;25887;30.194;-97.880;2023-06-22T05:36:23;97625.78;;;28.61;53.64
38880;BME280;25887;30.194;-97.880;2023-06-22T05:38:52;97629.41;;;28.59;53.80
38880;BME280;25887;30.194;-97.880;2023-06-22T05:41:19;97641.06;;;28.57;53.83
38880;BME280;25887;30.194;-97.880;2023-06-22T05:43:45;97618.50;;;28.53;53.91
38880;BME280;25887;30.194;-97.880;2023-06-22T05:46:11;97625.72;;;28.51;54.00
38880;BME280;25887;30.194;-97.880;2023-06-22T05:48:38;97666.47;;;28.48;54.13
38880;BME280;25887;30.194;-97.880;2023-06-22T05:51:04;97700.94;;;28.47;54.19
38880;BME280;25887;30.194;-97.880;2023-06-22T05:53:42;97702.03;;;28.44;54.10
38880;BME280;25887;30.194;-97.880;2023-06-22T05:56:10;97698.56;;;28.44;53.94
38880;BME280;25887;30.194;-97.880;2023-06-22T05:58:36;97694.38;;;28.41;53.94
38880;BME280;25887;30.194;-97.880;2023-06-22T06:01:02;97693.56;;;28.41;54.17
38880;BME280;25887;30.194;-97.880;2023-06-22T06:03:28;97718.88;;;28.43;54.48
38880;BME280;25887;30.194;-97.880;2023-06-22T06:05:54;97710.81;;;28.45;53.99
38880;BME280;25887;30.194;-97.880;2023-06-22T06:08:21;97677.44;;;28.44;54.06
38880;BME280;25887;30.194;-97.880;2023-06-22T06:10:47;97672.16;;;28.44;54.15
38880;BME280;25887;30.194;-97.880;2023-06-22T06:13:13;97680.91;;;28.44;54.27
38880;BME280;25887;30.194;-97.880;2023-06-22T06:15:39;97679.94;;;28.45;54.26
38880;BME280;25887;30.194;-97.880;2023-06-22T06:18:06;97685.09;;;28.47;54.46
38880;BME280;25887;30.194;-97.880;2023-06-22T06:20:32;97677.16;;;28.47;54.57
38880;BME280;25887;30.194;-97.880;2023-06-22T06:22:58;97664.06;;;28.45;54.52
38880;BME280;25887;30.194;-97.880;2023-06-22T06:25:24;97664.34;;;28.42;54.27
38880;BME280;25887;30.194;-97.880;2023-06-22T06:27:52;97673.34;;;28.40;54.55
38880;BME280;25887;30.194;-97.880;2023-06-22T06:30:20;97676.25;;;28.37;54.69
38880;BME280;25887;30.194;-97.880;2023-06-22T06:32:47;97681.69;;;28.35;54.64
38880;BME280;25887;30.194;-97.880;2023-06-22T06:35:14;97688.78;;;28.35;54.48
38880;BME280;25887;30.194;-97.880;2023-06-22T06:37:49;97680.97;;;28.33;54.77
38880;BME280;25887;30.194;-97.880;2023-06-22T06:40:16;97692.38;;;28.34;54.78
38880;BME280;25887;30.194;-97.880;2023-06-22T06:42:45;97691.66;;;28.31;54.57
38880;BME280;25887;30.194;-97.880;2023-06-22T06:45:12;97705.94;;;28.29;55.10
38880;BME280;25887;30.194;-97.880;2023-06-22T06:47:39;97729.00;;;28.27;54.95
38880;BME280;25887;30.194;-97.880;2023-06-22T06:50:06;97758.06;;;28.27;54.75
38880;BME280;25887;30.194;-97.880;2023-06-22T06:52:33;97786.28;;;28.26;54.79
38880;BME280;25887;30.194;-97.880;2023-06-22T06:54:59;97808.25;;;28.27;55.01
38880;BME280;25887;30.194;-97.880;2023-06-22T06:57:26;97805.97;;;28.22;54.79
38880;BME280;25887;30.194;-97.880;2023-06-22T06:59:56;97817.03;;;28.16;54.84
38880;BME280;25887;30.194;-97.880;2023-06-22T07:02:23;97853.44;;;28.13;54.84
38880;BME280;25887;30.194;-97.880;2023-06-22T07:04:50;97845.63;;;28.11;55.19
38880;BME280;25887;30.194;-97.880;2023-06-22T07:07:16;97851.88;;;28.10;55.51
38880;BME280;25887;30.194;-97.880;2023-06-22T07:09:42;97847.53;;;28.09;55.19
38880;BME280;25887;30.194;-97.880;2023-06-22T07:12:09;97844.19;;;28.07;55.45
38880;BME280;25887;30.194;-97.880;2023-06-22T07:14:35;97852.22;;;28.06;55.38
38880;BME280;25887;30.194;-97.880;2023-06-22T07:17:01;97869.03;;;28.04;55.62
38880;BME280;25887;30.194;-97.880;2023-06-22T07:19:29;97935.91;;;28.05;55.39
38880;BME280;25887;30.194;-97.880;2023-06-22T07:21:57;97960.50;;;28.06;55.63
38880;BME280;25887;30.194;-97.880;2023-06-22T07:24:24;97939.50;;;28.04;55.41
38880;BME280;25887;30.194;-97.880;2023-06-22T07:26:51;97915.03;;;28.02;55.61
38880;BME280;25887;30.194;-97.880;2023-06-22T07:29:17;97934.72;;;27.98;56.06
38880;BME280;25887;30.194;-97.880;2023-06-22T07:31:45;97931.34;;;27.96;55.53
38880;BME280;25887;30.194;-97.880;2023-06-22T07:34:11;97914.19;;;27.90;55.78
38880;BME280;25887;30.194;-97.880;2023-06-22T07:36:38;97928.69;;;27.85;56.12
38880;BME280;25887;30.194;-97.880;2023-06-22T07:39:04;97942.97;;;27.82;56.01
38880;BME280;25887;30.194;-97.880;2023-06-22T07:41:31;97946.69;;;27.80;56.07
38880;BME280;25887;30.194;-97.880;2023-06-22T07:43:57;97946.91;;;27.76;56.56
38880;BME280;25887;30.194;-97.880;2023-06-22T07:46:24;97943.81;;;27.71;56.87
38880;BME280;25887;30.194;-97.880;2023-06-22T07:48:50;97966.00;;;27.69;56.49
38880;BME280;25887;30.194;-97.880;2023-06-22T07:51:17;97987.22;;;27.67;56.69
38880;BME280;25887;30.194;-97.880;2023-06-22T07:53:44;98021.75;;;27.64;57.11
38880;BME280;25887;30.194;-97.880;2023-06-22T07:56:10;98031.56;;;27.62;56.88
38880;BME280;25887;30.194;-97.880;2023-06-22T07:58:37;98030.13;;;27.58;57.00
38880;BME280;25887;30.194;-97.880;2023-06-22T08:01:05;98045.97;;;27.58;57.02
38880;BME280;25887;30.194;-97.880;2023-06-22T08:03:33;98046.28;;;27.54;57.44
38880;BME280;25887;30.194;-97.880;2023-06-22T08:05:59;98043.75;;;27.52;57.26
38880;BME280;25887;30.194;-97.880;2023-06-22T08:08:25;98052.66;;;27.51;57.48
38880;BME280;25887;30.194;-97.880;2023-06-22T08:10:51;98066.06;;;27.48;57.51
38880;BME280;25887;30.194;-97.880;2023-06-22T08:13:18;98084.56;;;27.48;57.23
38880;BME280;25887;30.194;-97.880;2023-06-22T08:15:46;98081.16;;;27.46;57.61
38880;BME280;25887;30.194;-97.880;2023-06-22T08:18:12;98091.72;;;27.46;57.33
38880;BME280;25887;30.194;-97.880;2023-06-22T08:20:38;98087.28;;;27.46;57.43
38880;BME280;25887;30.194;-97.880;2023-06-22T08:23:04;98083.72;;;27.47;57.34
38880;BME280;25887;30.194;-97.880;2023-06-22T08:25:33;98087.06;;;27.49;57.50
38880;BME280;25887;30.194;-97.880;2023-06-22T08:28:00;98086.09;;;27.51;57.63
38880;BME280;25887;30.194;-97.880;2023-06-22T08:30:27;98070.41;;;27.49;57.67
38880;BME280;25887;30.194;-97.880;2023-06-22T08:32:54;98065.25;;;27.47;57.25
38880;BME280;25887;30.194;-97.880;2023-06-22T08:35:22;98052.88;;;27.48;57.62
38880;BME280;25887;30.194;-97.880;2023-06-22T08:37:51;98010.88;;;27.45;57.85
38880;BME280;25887;30.194;-97.880;2023-06-22T08:40:21;97972.50;;;27.41;58.08
38880;BME280;25887;30.194;-97.880;2023-06-22T08:42:48;97962.41;;;27.35;58.14
38880;BME280;25887;30.194;-97.880;2023-06-22T08:45:15;97977.72;;;27.30;58.35
38880;BME280;25887;30.194;-97.880;2023-06-22T08:47:42;97952.66;;;27.24;58.35
38880;BME280;25887;30.194;-97.880;2023-06-22T08:50:09;97927.56;;;27.18;58.49
38880;BME280;25887;30.194;-97.880;2023-06-22T08:52:49;97942.88;;;27.13;58.86
38880;BME280;25887;30.194;-97.880;2023-06-22T08:55:15;97955.16;;;27.02;59.93
38880;BME280;25887;30.194;-97.880;2023-06-22T08:57:41;97940.88;;;26.93;59.92
38880;BME280;25887;30.194;-97.880;2023-06-22T09:00:09;97991.41;;;26.87;59.97
38880;BME280;25887;30.194;-97.880;2023-06-22T09:02:46;98048.75;;;26.83;59.81
38880;BME280;25887;30.194;-97.880;2023-06-22T09:05:13;98061.34;;;26.80;59.79
38880;BME280;25887;30.194;-97.880;2023-06-22T09:07:40;98092.13;;;26.79;59.79
38880;BME280;25887;30.194;-97.880;2023-06-22T09:10:07;98154.53;;;26.79;59.75
38880;BME280;25887;30.194;-97.880;2023-06-22T09:12:33;98205.34;;;26.81;59.83
38880;BME280;25887;30.194;-97.880;2023-06-22T09:15:00;98240.34;;;26.83;59.88
38880;BME280;25887;30.194;-97.880;2023-06-22T09:17:42;98236.75;;;26.84;59.87
38880;BME280;25887;30.194;-97.880;2023-06-22T09:20:29;98212.97;;;26.85;60.15
38880;BME280;25887;30.194;-97.880;2023-06-22T09:22:55;98217.38;;;26.85;59.97
38880;BME280;25887;30.194;-97.880;2023-06-22T09:25:21;98197.22;;;26.84;60.00
38880;BME280;25887;30.194;-97.880;2023-06-22T09:27:48;98194.59;;;26.84;59.84
38880;BME280;25887;30.194;-97.880;2023-06-22T09:30:14;98239.31;;;26.85;59.59
38880;BME280;25887;30.194;-97.880;2023-06-22T09:32:40;98204.94;;;26.87;59.67
38880;BME280;25887;30.194;-97.880;2023-06-22T09:35:08;98235.63;;;26.88;59.61
38880;BME280;25887;30.194;-97.880;2023-06-22T09:37:35;98211.66;;;26.91;59.54
38880;BME280;25887;30.194;-97.880;2023-06-22T09:40:02;98202.81;;;26.92;59.73
38880;BME280;25887;30.194;-97.880;2023-06-22T09:42:33;98205.34;;;26.93;59.90
38880;BME280;25887;30.194;-97.880;2023-06-22T09:45:00;98160.31;;;26.97;59.42
38880;BME280;25887;30.194;-97.880;2023-06-22T09:47:28;98184.88;;;26.97;59.76
38880;BME280;25887;30.194;-97.880;2023-06-22T09:49:55;98178.66;;;26.98;59.34
38880;BME280;25887;30.194;-97.880;2023-06-22T09:52:21;98174.03;;;27.02;59.52
38880;BME280;25887;30.194;-97.880;2023-06-22T09:54:50;98160.72;;;27.03;59.24
38880;BME280;25887;30.194;-97.880;2023-06-22T09:57:17;98142.06;;;27.06;59.72
38880;BME280;25887;30.194;-97.880;2023-06-22T09:59:43;98118.22;;;27.08;59.24
38880;BME280;25887;30.194;-97.880;2023-06-22T10:02:09;98115.50;;;27.09;59.35
38880;BME280;25887;30.194;-97.880;2023-06-22T10:04:36;98114.31;;;27.13;59.45
38880;BME280;25887;30.194;-97.880;2023-06-22T10:07:03;98085.31;;;27.13;59.28
38880;BME280;25887;30.194;-97.880;2023-06-22T10:09:30;98071.91;;;27.16;59.08
38880;BME280;25887;30.194;-97.880;2023-06-22T10:15:02;98062.09;;;27.18;59.33
38880;BME280;25887;30.194;-97.880;2023-06-22T10:17:29;98039.31;;;27.17;59.26
38880;BME280;25887;30.194;-97.880;2023-06-22T10:19:55;98022.53;;;27.18;58.96
38880;BME280;25887;30.194;-97.880;2023-06-22T10:22:21;97997.81;;;27.19;58.85
38880;BME280;25887;30.194;-97.880;2023-06-22T10:24:47;97956.59;;;27.18;59.16
38880;BME280;25887;30.194;-97.880;2023-06-22T10:27:13;97910.91;;;27.18;58.88
38880;BME280;25887;30.194;-97.880;2023-06-22T10:29:40;97882.03;;;27.16;58.91
38880;BME280;25887;30.194;-97.880;2023-06-22T10:32:07;97835.47;;;27.15;59.53
38880;BME280;25887;30.194;-97.880;2023-06-22T10:34:33;97794.25;;;27.14;59.18
38880;BME280;25887;30.194;-97.880;2023-06-22T10:37:00;97746.19;;;27.11;59.41
38880;BME280;25887;30.194;-97.880;2023-06-22T10:39:26;97718.50;;;27.05;59.62
38880;BME280;25887;30.194;-97.880;2023-06-22T10:41:52;97761.66;;;27.04;59.33
38880;BME280;25887;30.194;-97.880;2023-06-22T10:44:18;97797.72;;;27.04;59.50
38880;BME280;25887;30.194;-97.880;2023-06-22T10:46:46;97766.16;;;27.02;59.16
38880;BME280;25887;30.194;-97.880;2023-06-22T10:49:12;97730.22;;;27.01;59.43
38880;BME280;25887;30.194;-97.880;2023-06-22T10:51:38;97705.75;;;26.99;59.21
38880;BME280;25887;30.194;-97.880;2023-06-22T10:54:05;97669.94;;;26.97;59.30
38880;BME280;25887;30.194;-97.880;2023-06-22T10:56:31;97638.53;;;26.93;59.51
38880;BME280;25887;30.194;-97.880;2023-06-22T10:59:11;97648.97;;;26.95;59.35
38880;BME280;25887;30.194;-97.880;2023-06-22T11:01:37;97623.56;;;26.94;59.25
38880;BME280;25887;30.194;-97.880;2023-06-22T11:04:04;97609.28;;;26.97;59.46
38880;BME280;25887;30.194;-97.880;2023-06-22T11:06:30;97626.78;;;26.98;59.11
38880;BME280;25887;30.194;-97.880;2023-06-22T11:08:56;97645.72;;;27.03;59.01
38880;BME280;25887;30.194;-97.880;2023-06-22T11:11:23;97644.78;;;27.04;59.35
38880;BME280;25887;30.194;-97.880;2023-06-22T11:13:49;97630.53;;;27.06;59.18
38880;BME280;25887;30.194;-97.880;2023-06-22T11:16:15;97643.56;;;27.08;59.19
38880;BME280;25887;30.194;-97.880;2023-06-22T11:18:42;97648.63;;;27.11;59.01
38880;BME280;25887;30.194;-97.880;2023-06-22T11:21:08;97633.38;;;27.14;58.60
38880;BME280;25887;30.194;-97.880;2023-06-22T11:23:34;97618.31;;;27.16;58.87
38880;BME280;25887;30.194;-97.880;2023-06-22T11:26:00;97613.75;;;27.18;58.78
38880;BME280;25887;30.194;-97.880;2023-06-22T11:28:27;97614.44;;;27.20;58.28
38880;BME280;25887;30.194;-97.880;2023-06-22T11:30:53;97623.06;;;27.23;58.19
38880;BME280;25887;30.194;-97.880;2023-06-22T11:33:20;97634.34;;;27.25;58.21
38880;BME280;25887;30.194;-97.880;2023-06-22T11:35:46;97617.56;;;27.26;57.92
38880;BME280;25887;30.194;-97.880;2023-06-22T11:38:12;97631.47;;;27.28;57.86
38880;BME280;25887;30.194;-97.880;2023-06-22T11:40:38;97613.00;;;27.28;57.98
38880;BME280;25887;30.194;-97.880;2023-06-22T11:43:04;97615.63;;;27.28;57.77
38880;BME280;25887;30.194;-97.880;2023-06-22T11:45:31;97601.75;;;27.26;57.95
38880;BME280;25887;30.194;-97.880;2023-06-22T11:47:57;97602.44;;;27.28;57.92
38880;BME280;25887;30.194;-97.880;2023-06-22T11:50:24;97594.41;;;27.29;57.90
38880;BME280;25887;30.194;-97.880;2023-06-22T11:52:56;97580.38;;;27.29;57.61
38880;BME280;25887;30.194;-97.880;2023-06-22T11:55:23;97589.84;;;27.31;57.79
38880;BME280;25887;30.194;-97.880;2023-06-22T11:57:56;97585.28;;;27.33;57.76
38880;BME280;25887;30.194;-97.880;2023-06-22T12:00:25;97598.22;;;27.36;57.46
38880;BME280;25887;30.194;-97.880;2023-06-22T12:02:51;97596.19;;;27.40;57.39
38880;BME280;25887;30.194;-97.880;2023-06-22T12:05:21;97586.09;;;27.45;56.80
38880;BME280;25887;30.194;-97.880;2023-06-22T12:07:48;97587.41;;;27.51;56.61
38880;BME280;25887;30.194;-97.880;2023-06-22T12:10:15;97582.59;;;27.56;56.39
38880;BME280;25887;30.194;-97.880;2023-06-22T12:12:42;97576.78;;;27.62;55.71
38880;BME280;25887;30.194;-97.880;2023-06-22T12:15:10;97574.75;;;27.65;55.80
38880;BME280;25887;30.194;-97.880;2023-06-22T12:17:36;97577.91;;;27.70;55.45
38880;BME280;25887;30.194;-97.880;2023-06-22T12:20:02;97588.06;;;27.75;54.77
38880;BME280;25887;30.194;-97.880;2023-06-22T12:22:32;97597.16;;;27.82;54.45
38880;BME280;25887;30.194;-97.880;2023-06-22T12:24:58;97604.56;;;27.88;54.42
38880;BME280;25887;30.194;-97.880;2023-06-22T12:27:25;97596.16;;;27.94;53.61
38880;BME280;25887;30.194;-97.880;2023-06-22T12:29:51;97594.53;;;28.03;53.16
38880;BME280;25887;30.194;-97.880;2023-06-22T12:32:17;97609.75;;;28.11;53.00
38880;BME280;25887;30.194;-97.880;2023-06-22T12:34:44;97607.28;;;28.19;53.01
38880;BME280;25887;30.194;-97.880;2023-06-22T12:37:10;97615.28;;;28.28;52.13
38880;BME280;25887;30.194;-97.880;2023-06-22T12:39:37;97621.75;;;28.36;51.70
38880;BME280;25887;30.194;-97.880;2023-06-22T12:42:03;97640.44;;;28.44;51.62
38880;BME280;25887;30.194;-97.880;2023-06-22T12:44:29;97652.41;;;28.48;51.37
38880;BME280;25887;30.194;-97.880;2023-06-22T12:46:55;97673.31;;;28.51;51.61
38880;BME280;25887;30.194;-97.880;2023-06-22T12:49:21;97690.84;;;28.52;51.26
38880;BME280;25887;30.194;-97.880;2023-06-22T12:51:48;97709.34;;;28.52;51.57
38880;BME280;25887;30.194;-97.880;2023-06-22T12:54:17;97722.81;;;28.49;51.49
38880;BME280;25887;30.194;-97.880;2023-06-22T12:56:43;97739.03;;;28.44;52.07